• Join FlightAware (Why Join?)
  • Login
  • US Flag 
12:56PM EDT


 

Airport Tracker/Info


-or-


 

Live Flight TrackerFlight Track Log ✈ PDT4373 ✈ 11-Oct-2013 ✈ KPHL - KBGM

Flight Track Log - Related Links

Times and Time Zones

All times are in EDT time to prevent confusion due to time zone crossing. See the PDT4373 flight status page for this flight to view local times or setup timezone preferences in your user account.

Time Position Orientation Groundspeed Altitude Reporting Facility
EDT Latitude Longitude Course Direction KTS MPH feet Rate Location/Type
10:03AM 39.8833 -75.2000 311° West 108 124 700  Level Philadelphia TRACON
10:05AM 39.9167 -75.1833 21° North 128 147 2,500 1,200 Climbing Philadelphia TRACON
10:05AM 39.9500 -75.1667 21° North 130 150 3,500 1,140 Climbing Philadelphia TRACON
10:06AM 40.0975 -75.3098 North  Level Estimated
10:06AM 39.9833 -75.1500 21° North 166 191 4,700  Level Philadelphia TRACON
10:07AM 40.1725 -75.3328 North  Level Estimated
10:07AM 40.0167 -75.2000 311° West 179 206 5,800  Level Philadelphia TRACON
10:08AM 40.2476 -75.3560 311° West  Level Estimated
10:09AM 40.0717 -75.2628 319° Northwest 195 224 7,500  Level New York Center
10:10AM 40.1097 -75.3086 317° Northwest 195 224 8,500 780 Climbing New York Center
10:11AM 40.1467 -75.3708 308° West 188 216 9,100 420 Climbing New York Center
10:12AM 40.1692 -75.4403 293° West 220 253 9,400 600 Climbing New York Center
10:13AM 40.2033 -75.5214 299° West 229 264 10,400 960 Climbing New York Center
10:14AM 40.2364 -75.5836 305° West 224 258 11,400 900 Climbing New York Center
10:15AM 40.2733 -75.6433 309° West 214 246 12,200 840 Climbing New York Center
10:16AM 40.3125 -75.7031 311° West 214 246 13,100 840 Climbing New York Center
10:17AM 40.3456 -75.7600 307° West 214 246 13,900 420 Climbing New York Center
10:18AM 40.3908 -75.8258 312° West 221 254 14,000  Climbing New York Center
10:19AM 40.4394 -75.9086 308° West 251 289 14,000  Level New York Center
10:20AM 40.4906 -75.9753 315° West 263 303 14,000  Level New York Center
10:21AM 40.5417 -76.0472 313° West 268 308 14,000  Level New York Center
10:22AM 40.5781 -76.1158 305° West 273 314 14,000  Level New York Center
10:23AM 40.6289 -76.1936 311° West 267 307 14,000  Level New York Center
10:24AM 40.6906 -76.2531 324° Northwest 260 299 14,000  Level New York Center
10:25AM 40.7536 -76.2417 North 225 259 14,100  Climbing New York Center
10:26AM 40.8225 -76.2417 360° North 225 259 14,100  Level New York Center
10:27AM 40.8850 -76.2414 360° North 238 274 14,100  Level New York Center
10:28AM 40.9603 -76.2336 North 238 274 14,100  Level New York Center
10:29AM 41.0253 -76.2250 North 238 274 14,100  Level New York Center
10:30AM 41.0881 -76.2192 North 238 274 14,100 -60 Level New York Center
10:31AM 41.1678 -76.2089 North 238 274 14,000 -60 Descending New York Center
10:32AM 41.2386 -76.2064 North 244 281 14,000  Level New York Center
10:33AM 41.3078 -76.1981 North 244 281 14,000  Level New York Center
10:34AM 41.3769 -76.1900 North 250 288 14,000  Level New York Center
10:35AM 41.4414 -76.1950 357° North 256 295 14,000 -60 Level New York Center
10:36AM 41.5228 -76.1906 North 256 295 13,900 -600 Descending New York Center
10:37AM 41.5942 -76.1769 North 256 295 12,900 -1,200 Descending New York Center
10:38AM 41.6694 -76.1692 North 261 300 11,500 -1,440 Descending New York Center
10:39AM 41.7342 -76.1689 360° North 261 300 10,100 -1,500 Descending New York Center
10:40AM 41.8008 -76.1658 North 248 285 8,600 -1,560 Descending New York Center
10:41AM 41.8700 -76.1547 North 229 264 7,000 -1,260 Descending New York Center
10:42AM 41.9297 -76.1233 21° North 224 258 6,100 -900 Descending New York Center
10:43AM 41.9875 -76.0864 25° Northeast 224 258 5,200 -960 Descending New York Center
10:44AM 42.0428 -76.0656 16° North 224 258 4,200 -1,020 Descending New York Center
10:45AM 42.0967 -76.0194 32° Northeast 224 258 3,200 -600 Descending New York Center
10:46AM 42.1400 -75.9839 31° Northeast 204 235 3,100 -480 Descending New York Center
10:47AM 42.1703 -75.9556 35° Northeast 166 191 2,300 -480 Descending New York Center
10:48AM 42.2136 -75.9197 31° Northeast 156 180 2,200 1,320 Descending New York Center
10:49AM 42.2525 -75.8864 32° Northeast 156 180 5,000 2,760 Climbing New York Center